createdAt,value
2018-07-20T00:00:44.463Z,54.45
2018-07-20T00:03:12.097Z,54.65
2018-07-20T00:05:39.720Z,54.44
2018-07-20T00:08:07.462Z,54.61
2018-07-20T00:10:35.104Z,54.74
2018-07-20T00:13:02.697Z,54.70
2018-07-20T00:15:30.311Z,54.87
2018-07-20T00:17:57.933Z,55.53
2018-07-20T00:20:25.597Z,55.18
2018-07-20T00:22:53.215Z,55.27
2018-07-20T00:25:20.901Z,55.40
2018-07-20T00:27:48.463Z,55.76
2018-07-20T00:30:16.092Z,55.30
2018-07-20T00:32:43.692Z,55.49
2018-07-20T00:35:11.403Z,55.63
2018-07-20T00:37:39.020Z,56.00
2018-07-20T00:40:06.615Z,56.16
2018-07-20T00:42:34.215Z,56.21
2018-07-20T00:45:01.857Z,55.99
2018-07-20T00:47:29.451Z,56.33
2018-07-20T00:49:57.043Z,56.20
2018-07-20T00:52:24.648Z,56.48
2018-07-20T00:54:52.234Z,56.25
2018-07-20T00:57:19.819Z,56.52
2018-07-20T00:59:47.454Z,56.69
2018-07-20T01:02:15.094Z,56.74
2018-07-20T01:04:42.675Z,56.37
2018-07-20T01:07:10.375Z,56.39
2018-07-20T01:09:37.985Z,56.70
2018-07-20T01:12:05.820Z,57.12
2018-07-20T01:14:33.461Z,56.92
2018-07-20T01:17:01.119Z,56.87
2018-07-20T01:19:28.712Z,57.04
2018-07-20T01:21:56.319Z,56.91
2018-07-20T01:24:23.880Z,57.12
2018-07-20T01:26:51.488Z,57.22
2018-07-20T01:29:19.319Z,56.89
2018-07-20T01:31:46.912Z,57.04
2018-07-20T01:34:14.483Z,56.74
2018-07-20T01:36:42.099Z,56.74
2018-07-20T01:39:09.973Z,56.99
2018-07-20T01:41:37.684Z,56.72
2018-07-20T01:44:05.367Z,57.04
2018-07-20T01:46:33.029Z,57.25
2018-07-20T01:49:00.632Z,56.68
2018-07-20T01:51:28.222Z,56.80
2018-07-20T01:53:55.783Z,56.44
2018-07-20T01:56:23.371Z,56.63
2018-07-20T01:58:50.995Z,57.23
2018-07-20T02:01:18.697Z,57.03
2018-07-20T02:03:46.286Z,57.20
2018-07-20T02:06:13.912Z,57.45
2018-07-20T02:08:41.504Z,57.80
2018-07-20T02:11:09.063Z,57.50
2018-07-20T02:13:36.696Z,57.46
2018-07-20T02:16:04.288Z,57.54
2018-07-20T02:18:31.864Z,57.91
2018-07-20T02:20:59.515Z,57.89
2018-07-20T02:23:27.095Z,57.87
2018-07-20T02:25:54.669Z,57.71
2018-07-20T02:28:22.403Z,57.88
2018-07-20T02:30:49.974Z,57.62
2018-07-20T02:33:17.551Z,58.24
2018-07-20T02:35:45.188Z,58.17
2018-07-20T02:38:12.756Z,57.96
2018-07-20T02:40:40.348Z,57.95
2018-07-20T02:43:08.058Z,57.95
2018-07-20T02:45:35.664Z,57.87
2018-07-20T02:48:03.274Z,58.20
2018-07-20T02:50:30.983Z,58.41
2018-07-20T02:52:58.559Z,58.50
2018-07-20T02:55:26.140Z,58.36
2018-07-20T02:57:53.800Z,58.31
2018-07-20T03:00:21.472Z,58.56
2018-07-20T03:02:49.047Z,58.13
2018-07-20T03:05:16.677Z,58.60
2018-07-20T03:07:44.264Z,58.65
2018-07-20T03:10:11.833Z,58.45
2018-07-20T03:12:39.419Z,58.37
2018-07-20T03:15:07.046Z,58.42
2018-07-20T03:17:34.606Z,58.79
2018-07-20T03:20:02.267Z,58.72
2018-07-20T03:22:29.906Z,58.63
2018-07-20T03:24:57.539Z,58.84
2018-07-20T03:27:25.161Z,58.39
2018-07-20T03:29:52.747Z,58.30
2018-07-20T03:32:20.332Z,58.64
2018-07-20T03:34:47.948Z,58.70
2018-07-20T03:37:15.575Z,58.73
2018-07-20T03:39:43.861Z,59.02
2018-07-20T03:42:11.575Z,58.34
2018-07-20T03:44:39.188Z,58.39
2018-07-20T03:47:06.840Z,58.26
2018-07-20T03:49:34.455Z,58.98
2018-07-20T03:52:02.051Z,58.29
2018-07-20T03:54:29.621Z,57.91
2018-07-20T03:56:57.211Z,58.07
2018-07-20T03:59:24.788Z,58.21
2018-07-20T04:01:52.364Z,57.84
2018-07-20T04:04:19.970Z,58.13
2018-07-20T04:06:47.541Z,57.94
2018-07-20T04:09:15.112Z,58.38
2018-07-20T04:11:42.731Z,58.13
2018-07-20T04:14:10.338Z,58.05
2018-07-20T04:16:38.063Z,58.25
2018-07-20T04:19:05.780Z,58.26
2018-07-20T04:21:33.372Z,58.55
2018-07-20T04:24:01.108Z,58.70
2018-07-20T04:26:28.712Z,58.69
2018-07-20T04:28:56.281Z,58.43
2018-07-20T04:31:23.880Z,58.41
2018-07-20T04:33:51.539Z,59.06
2018-07-20T04:36:19.103Z,58.91
2018-07-20T04:38:46.703Z,58.92
2018-07-20T04:41:14.331Z,59.33
2018-07-20T04:43:41.912Z,58.74
2018-07-20T04:46:09.549Z,58.16
2018-07-20T04:48:37.148Z,58.35
2018-07-20T04:51:04.704Z,58.29
2018-07-20T04:53:32.284Z,57.97
2018-07-20T04:55:59.895Z,57.96
2018-07-20T04:58:27.503Z,57.68
2018-07-20T05:00:55.073Z,57.58
2018-07-20T05:03:22.811Z,57.36
2018-07-20T05:05:50.442Z,56.83
2018-07-20T05:08:18.048Z,56.80
2018-07-20T05:10:45.672Z,57.13
2018-07-20T05:13:13.251Z,56.47
2018-07-20T05:15:40.815Z,56.09
2018-07-20T05:18:08.443Z,55.44
2018-07-20T05:20:36.010Z,55.13
2018-07-20T05:23:03.596Z,55.37
2018-07-20T05:25:31.321Z,55.34
2018-07-20T05:27:58.877Z,55.25
2018-07-20T05:30:26.476Z,54.97
2018-07-20T05:32:54.166Z,55.03
2018-07-20T05:35:21.804Z,54.65
2018-07-20T05:37:49.397Z,54.25
2018-07-20T05:40:16.999Z,53.42
2018-07-20T05:42:44.559Z,51.96
2018-07-20T05:45:12.160Z,51.90
2018-07-20T05:47:39.779Z,50.94
2018-07-20T05:50:07.908Z,50.43
2018-07-20T05:52:35.521Z,50.51
2018-07-20T05:55:03.988Z,50.13
2018-07-20T05:57:31.597Z,50.44
2018-07-20T05:59:59.147Z,49.95
2018-07-20T06:02:26.787Z,49.43
2018-07-20T06:04:54.368Z,49.34
2018-07-20T06:07:21.942Z,49.21
2018-07-20T06:09:49.559Z,49.16
2018-07-20T06:12:17.148Z,48.86
2018-07-20T06:14:44.921Z,48.64
2018-07-20T06:17:13.712Z,47.63
2018-07-20T06:19:41.277Z,47.32
2018-07-20T06:22:08.896Z,47.09
2018-07-20T06:24:36.590Z,46.79
2018-07-20T06:27:04.247Z,46.03
2018-07-20T06:29:31.916Z,46.21
2018-07-20T06:31:59.571Z,45.33
2018-07-20T06:34:27.225Z,45.21
2018-07-20T06:36:54.804Z,44.85
2018-07-20T06:39:22.408Z,44.85
2018-07-20T06:41:50.007Z,44.32
2018-07-20T06:44:17.604Z,44.24
2018-07-20T06:46:45.203Z,43.82
2018-07-20T06:49:12.793Z,42.65
2018-07-20T06:51:40.452Z,42.01
2018-07-20T06:54:08.101Z,42.49
2018-07-20T06:56:35.677Z,41.66
2018-07-20T06:59:03.292Z,41.40
2018-07-20T07:01:31.221Z,40.49
2018-07-20T07:03:58.792Z,41.04
2018-07-20T07:06:26.425Z,40.38
2018-07-20T07:08:54.024Z,41.04
2018-07-20T07:11:21.683Z,40.69
2018-07-20T07:13:49.253Z,40.07
2018-07-20T07:16:17.341Z,40.00
2018-07-20T07:18:44.953Z,39.12
2018-07-20T07:21:12.512Z,36.84
2018-07-20T07:23:40.217Z,37.58
2018-07-20T07:26:07.788Z,35.97
2018-07-20T07:28:36.366Z,36.13
2018-07-20T07:31:03.973Z,33.84
2018-07-20T07:33:31.540Z,34.73
2018-07-20T07:35:59.128Z,34.93
2018-07-20T07:38:26.757Z,34.19
2018-07-20T07:40:54.356Z,33.21
2018-07-20T07:43:21.927Z,33.65
2018-07-20T07:45:49.527Z,33.56
2018-07-20T07:48:17.121Z,32.87
2018-07-20T07:50:44.757Z,32.67
2018-07-20T07:53:12.353Z,31.91
2018-07-20T07:55:39.981Z,31.92
2018-07-20T07:58:07.564Z,31.53
2018-07-20T08:00:35.181Z,31.14
2018-07-20T08:03:02.811Z,31.21
2018-07-20T08:05:30.376Z,31.36
2018-07-20T08:07:58.012Z,31.52
2018-07-20T08:10:25.664Z,29.52
2018-07-20T08:12:53.887Z,29.69
2018-07-20T08:15:21.509Z,28.49
2018-07-20T08:17:49.140Z,29.12
2018-07-20T08:20:16.844Z,27.40
2018-07-20T08:22:44.560Z,28.74
2018-07-20T08:25:12.196Z,29.30
2018-07-20T08:27:39.767Z,27.88
2018-07-20T08:30:07.427Z,27.90
2018-07-20T08:32:35.036Z,28.19
2018-07-20T08:35:03.206Z,26.75
2018-07-20T08:37:30.817Z,26.76
2018-07-20T08:39:58.407Z,27.06
2018-07-20T08:42:26.007Z,25.43
2018-07-20T08:44:53.632Z,26.26
2018-07-20T08:47:21.312Z,25.78
2018-07-20T08:49:48.945Z,25.40
2018-07-20T08:52:16.776Z,24.61
2018-07-20T08:54:44.443Z,24.60
2018-07-20T08:57:12.039Z,23.87
2018-07-20T08:59:39.644Z,23.30
2018-07-20T09:02:07.380Z,23.89
2018-07-20T09:04:35.125Z,23.52
2018-07-20T09:07:02.796Z,22.55
2018-07-20T09:09:30.363Z,23.33
2018-07-20T09:11:57.934Z,21.64
2018-07-20T09:14:25.560Z,22.40
2018-07-20T09:16:53.121Z,21.87
2018-07-20T09:19:20.715Z,22.39
2018-07-20T09:21:48.327Z,22.85
2018-07-20T09:24:15.892Z,23.87
2018-07-20T09:26:43.473Z,23.44
2018-07-20T09:29:11.052Z,24.66
2018-07-20T09:31:38.620Z,25.75
2018-07-20T09:34:06.415Z,25.96
2018-07-20T09:36:34.012Z,25.07
2018-07-20T09:39:01.610Z,26.58
2018-07-20T09:41:29.204Z,26.81
2018-07-20T09:43:56.840Z,27.66
2018-07-20T09:46:24.436Z,29.12
2018-07-20T09:48:52.068Z,29.63
2018-07-20T09:51:19.661Z,27.89
2018-07-20T09:53:47.248Z,25.44
2018-07-20T09:56:14.900Z,24.28
2018-07-20T09:58:42.528Z,22.24
2018-07-20T10:01:10.119Z,22.24
2018-07-20T10:03:37.752Z,22.37
2018-07-20T10:06:05.451Z,21.72
2018-07-20T10:08:33.017Z,18.80
2018-07-20T10:11:00.595Z,19.00
2018-07-20T10:13:28.174Z,18.59
2018-07-20T10:15:55.760Z,19.46
2018-07-20T10:18:23.336Z,18.78
2018-07-20T10:20:50.978Z,18.55
2018-07-20T10:23:18.572Z,18.74
2018-07-20T10:25:46.332Z,17.50
2018-07-20T10:28:14.157Z,17.40
2018-07-20T10:30:41.740Z,18.11
2018-07-20T10:33:09.566Z,17.57
2018-07-20T10:35:37.251Z,16.78
2018-07-20T10:38:05.264Z,17.31
2018-07-20T10:40:32.897Z,17.41
2018-07-20T10:43:00.540Z,17.72
2018-07-20T10:45:28.130Z,16.62
2018-07-20T10:47:55.819Z,16.47
2018-07-20T10:50:23.484Z,16.51
2018-07-20T10:52:51.063Z,16.81
2018-07-20T10:55:19.326Z,15.65
2018-07-20T10:57:47.228Z,16.24
2018-07-20T11:00:14.848Z,16.12
2018-07-20T11:02:42.445Z,15.81
2018-07-20T11:05:10.073Z,15.91
2018-07-20T11:07:37.652Z,15.33
2018-07-20T11:10:05.746Z,14.69
2018-07-20T11:12:33.363Z,14.84
2018-07-20T11:15:00.928Z,13.59
2018-07-20T11:17:28.567Z,13.79
2018-07-20T11:19:56.192Z,14.15
2018-07-20T11:22:23.797Z,14.00
2018-07-20T11:24:51.420Z,14.51
2018-07-20T11:27:19.043Z,15.26
2018-07-20T11:29:46.627Z,16.11
2018-07-20T11:32:14.191Z,17.71
2018-07-20T11:34:41.813Z,18.68
2018-07-20T11:37:09.380Z,19.40
2018-07-20T11:39:36.936Z,19.27
2018-07-20T11:42:04.580Z,18.76
2018-07-20T11:44:32.184Z,18.17
2018-07-20T11:46:59.748Z,18.56
2018-07-20T11:49:27.345Z,19.12
2018-07-20T11:51:54.928Z,17.81
2018-07-20T11:54:22.507Z,19.31
2018-07-20T11:56:50.147Z,19.45
2018-07-20T11:59:18.005Z,20.02
2018-07-20T12:01:45.628Z,19.12
2018-07-20T12:04:13.288Z,16.35
2018-07-20T12:06:40.869Z,16.49
2018-07-20T12:09:10.097Z,14.93
2018-07-20T12:11:37.770Z,14.15
2018-07-20T12:14:05.335Z,13.46
2018-07-20T12:16:32.899Z,12.56
2018-07-20T12:19:00.789Z,12.40
2018-07-20T12:21:28.395Z,12.34
2018-07-20T12:23:55.985Z,12.01
2018-07-20T12:26:23.611Z,11.90
2018-07-20T12:28:51.204Z,11.07
2018-07-20T12:31:18.777Z,10.94
2018-07-20T12:33:46.595Z,11.10
2018-07-20T12:36:14.213Z,12.36
2018-07-20T12:38:41.777Z,11.34
2018-07-20T12:41:09.807Z,10.78
2018-07-20T12:43:37.396Z,10.53
2018-07-20T12:46:05.205Z,11.58
2018-07-20T12:48:33.072Z,12.40
2018-07-20T12:51:00.692Z,12.17
2018-07-20T12:53:28.309Z,11.62
2018-07-20T12:55:56.225Z,11.55
2018-07-20T12:58:23.878Z,12.61
2018-07-20T13:00:51.540Z,12.18
2018-07-20T13:03:19.136Z,11.85
2018-07-20T13:05:46.720Z,11.53
2018-07-20T13:08:14.340Z,11.16
2018-07-20T13:10:42.287Z,11.12
2018-07-20T13:13:10.016Z,10.41
2018-07-20T13:15:37.620Z,10.19
2018-07-20T13:18:05.478Z,10.41
2018-07-20T13:20:33.359Z,10.48
2018-07-20T13:23:00.949Z,10.14
2018-07-20T13:25:28.837Z,9.50
2018-07-20T13:27:56.530Z,10.08
2018-07-20T13:30:24.247Z,11.15
2018-07-20T13:32:52.224Z,10.84
2018-07-20T13:35:20.211Z,9.90
2018-07-20T13:37:47.851Z,9.80
2018-07-20T13:40:15.793Z,9.95
2018-07-20T13:42:43.412Z,11.95
2018-07-20T13:45:11.011Z,10.64
2018-07-20T13:47:38.798Z,10.48
2018-07-20T13:50:06.623Z,10.09
2018-07-20T13:52:34.386Z,10.94
2018-07-20T13:55:02.026Z,9.74
2018-07-20T13:57:31.615Z,10.23
2018-07-20T13:59:59.355Z,10.53
2018-07-20T14:02:27.057Z,9.50
2018-07-20T14:04:54.660Z,9.83
2018-07-20T14:07:22.441Z,10.28
2018-07-20T14:09:50.115Z,10.21
2018-07-20T14:12:17.776Z,10.86
2018-07-20T14:14:45.384Z,10.14
2018-07-20T14:17:13.033Z,10.23
2018-07-20T14:19:40.635Z,10.16
2018-07-20T14:22:08.705Z,10.16
2018-07-20T14:24:36.542Z,10.69
2018-07-20T14:27:04.409Z,9.91
2018-07-20T14:29:34.035Z,10.67
2018-07-20T14:32:01.838Z,10.98
2018-07-20T14:34:29.582Z,11.21
2018-07-20T14:36:57.206Z,10.96
2018-07-20T14:39:24.835Z,11.28
2018-07-20T14:41:52.424Z,10.84
2018-07-20T14:44:20.035Z,10.59
2018-07-20T14:46:47.659Z,10.24
2018-07-20T14:49:15.275Z,10.08
2018-07-20T14:51:42.897Z,10.42
2018-07-20T14:54:10.604Z,10.73
2018-07-20T14:56:38.194Z,11.12
2018-07-20T14:59:05.820Z,11.62
2018-07-20T15:01:33.488Z,11.36
2018-07-20T15:04:01.097Z,11.57
2018-07-20T15:06:28.804Z,11.52
2018-07-20T15:08:56.446Z,11.22
2018-07-20T15:11:24.076Z,11.99
2018-07-20T15:13:51.661Z,12.91
2018-07-20T15:16:19.332Z,13.02
2018-07-20T15:18:46.925Z,12.84
2018-07-20T15:21:14.518Z,13.44
2018-07-20T15:23:42.111Z,13.86
2018-07-20T15:26:09.736Z,14.55
2018-07-20T15:28:37.360Z,15.41
2018-07-20T15:31:05.368Z,15.99
2018-07-20T15:33:32.936Z,16.33
2018-07-20T15:36:00.496Z,15.91
2018-07-20T15:38:28.136Z,16.45
2018-07-20T15:40:55.706Z,18.02
2018-07-20T15:43:23.322Z,17.99
2018-07-20T15:45:52.144Z,18.78
2018-07-20T15:48:18.638Z,19.26
2018-07-20T15:50:46.300Z,18.74
2018-07-20T15:55:41.575Z,19.17
2018-07-20T15:58:09.512Z,19.87
2018-07-20T16:00:37.150Z,19.37
2018-07-20T16:03:04.747Z,20.03
2018-07-20T16:05:32.332Z,19.95
2018-07-20T16:07:59.976Z,20.40
2018-07-20T16:10:27.524Z,21.15
2018-07-20T16:12:55.135Z,20.73
2018-07-20T16:15:22.777Z,20.86
2018-07-20T16:17:50.365Z,21.14
2018-07-20T16:20:17.954Z,21.54
2018-07-20T16:22:45.614Z,21.15
2018-07-20T16:25:13.169Z,21.60
2018-07-20T16:27:40.762Z,21.75
2018-07-20T16:30:08.533Z,21.79
2018-07-20T16:32:36.151Z,22.09
2018-07-20T16:35:04.009Z,22.11
2018-07-20T16:37:31.613Z,21.85
2018-07-20T16:39:59.205Z,22.36
2018-07-20T16:42:26.821Z,22.24
2018-07-20T16:44:54.463Z,22.38
2018-07-20T16:47:22.133Z,22.43
2018-07-20T16:49:49.732Z,22.80
2018-07-20T16:52:17.347Z,22.71
2018-07-20T16:54:44.973Z,22.52
2018-07-20T16:57:12.565Z,23.15
2018-07-20T16:59:40.204Z,23.35
2018-07-20T17:02:07.856Z,23.36
2018-07-20T17:04:35.483Z,23.28
2018-07-20T17:07:03.096Z,23.37
2018-07-20T17:09:30.722Z,23.43
2018-07-20T17:11:58.382Z,23.22
2018-07-20T17:14:26.064Z,23.49
2018-07-20T17:16:53.655Z,24.06
2018-07-20T17:19:21.249Z,24.10
2018-07-20T17:21:48.883Z,23.72
2018-07-20T17:24:16.485Z,23.90
2018-07-20T17:26:44.087Z,23.78
2018-07-20T17:29:11.674Z,24.22
2018-07-20T17:31:39.319Z,24.62
2018-07-20T17:34:06.888Z,24.40
2018-07-20T17:36:35.328Z,24.75
2018-07-20T17:39:03.112Z,24.97
2018-07-20T17:41:30.704Z,24.97
2018-07-20T17:43:58.376Z,24.97
2018-07-20T17:46:25.979Z,25.62
2018-07-20T17:48:53.608Z,25.30
2018-07-20T17:51:21.329Z,26.15
2018-07-20T17:53:49.034Z,25.88
2018-07-20T17:56:16.758Z,26.32
2018-07-20T17:58:44.415Z,26.60
2018-07-20T18:01:12.007Z,26.17
2018-07-20T18:03:39.578Z,26.37
2018-07-20T18:06:07.248Z,26.42
2018-07-20T18:08:35.492Z,27.00
2018-07-20T18:11:03.168Z,26.53
2018-07-20T18:13:31.209Z,27.10
2018-07-20T18:15:59.815Z,26.61
2018-07-20T18:18:27.424Z,27.18
2018-07-20T18:20:55.023Z,27.31
2018-07-20T18:23:22.611Z,27.05
2018-07-20T18:25:50.212Z,26.98
2018-07-20T18:28:18.109Z,27.58
2018-07-20T18:30:45.695Z,28.05
2018-07-20T18:33:13.276Z,27.47
2018-07-20T18:35:40.913Z,27.58
2018-07-20T18:38:08.524Z,27.61
2018-07-20T18:40:36.128Z,27.19
2018-07-20T18:43:03.747Z,27.69
2018-07-20T18:45:31.315Z,27.33
2018-07-20T18:47:59.238Z,27.61
2018-07-20T18:50:26.864Z,27.87
2018-07-20T18:52:54.527Z,28.23
2018-07-20T18:55:22.083Z,27.94
2018-07-20T18:57:49.683Z,28.47
2018-07-20T19:00:17.259Z,28.22
2018-07-20T19:02:44.831Z,28.69
2018-07-20T19:05:12.447Z,28.60
2018-07-20T19:07:40.014Z,28.73
2018-07-20T19:10:07.610Z,29.09
2018-07-20T19:12:35.207Z,29.04
2018-07-20T19:15:02.853Z,29.09
2018-07-20T19:17:30.456Z,29.12
2018-07-20T19:19:58.074Z,29.68
2018-07-20T19:22:25.688Z,29.17
2018-07-20T19:24:53.267Z,29.59
2018-07-20T19:27:20.935Z,29.29
2018-07-20T19:29:48.532Z,29.91
2018-07-20T19:32:16.122Z,30.11
2018-07-20T19:34:43.741Z,30.67
2018-07-20T19:37:11.314Z,30.34
2018-07-20T19:39:38.978Z,30.38
2018-07-20T19:42:06.607Z,30.03
2018-07-20T19:44:34.219Z,30.12
2018-07-20T19:47:01.827Z,30.50
2018-07-20T19:49:29.445Z,30.87
2018-07-20T19:51:57.088Z,30.84
2018-07-20T19:54:24.689Z,31.48
2018-07-20T19:56:52.307Z,31.58
2018-07-20T19:59:20.124Z,31.09
2018-07-20T20:01:47.701Z,31.26
2018-07-20T20:04:15.359Z,31.47
2018-07-20T20:06:42.997Z,31.38
2018-07-20T20:09:11.356Z,31.56
2018-07-20T20:11:38.984Z,31.72
2018-07-20T20:14:06.577Z,31.58
2018-07-20T20:16:36.427Z,31.84
2018-07-20T20:19:04.207Z,32.56
2018-07-20T20:21:31.787Z,32.60
2018-07-20T20:23:59.508Z,32.39
2018-07-20T20:26:27.139Z,32.47
2018-07-20T20:28:54.811Z,32.88
2018-07-20T20:31:22.430Z,32.43
2018-07-20T20:33:50.053Z,33.10
2018-07-20T20:36:17.656Z,32.95
2018-07-20T20:38:46.404Z,33.39
2018-07-20T20:41:14.020Z,33.43
2018-07-20T20:43:41.692Z,33.53
2018-07-20T20:46:09.312Z,33.76
2018-07-20T20:48:37.014Z,33.90
2018-07-20T20:51:04.647Z,33.77
2018-07-20T20:53:32.246Z,33.76
2018-07-20T20:55:59.888Z,33.34
2018-07-20T20:58:27.478Z,33.72
2018-07-20T21:00:55.053Z,33.00
2018-07-20T21:03:22.676Z,33.34
2018-07-20T21:05:50.280Z,32.93
2018-07-20T21:08:17.873Z,33.27
2018-07-20T21:10:45.512Z,32.98
2018-07-20T21:13:13.115Z,33.44
2018-07-20T21:15:40.777Z,33.18
2018-07-20T21:18:08.404Z,32.91
2018-07-20T21:20:35.964Z,33.34
2018-07-20T21:23:03.779Z,33.05
2018-07-20T21:25:31.574Z,32.88
2018-07-20T21:27:59.248Z,32.70
2018-07-20T21:30:26.847Z,32.48
2018-07-20T21:32:54.467Z,32.54
2018-07-20T21:35:23.225Z,32.61
2018-07-20T21:37:50.828Z,31.94
2018-07-20T21:40:18.476Z,32.11
2018-07-20T21:42:46.093Z,32.46
2018-07-20T21:45:14.113Z,32.19
2018-07-20T21:47:41.732Z,32.28
2018-07-20T21:50:09.559Z,31.92
2018-07-20T21:52:37.787Z,32.15
2018-07-20T21:55:05.433Z,32.00
2018-07-20T21:57:33.017Z,31.93
2018-07-20T22:00:00.677Z,32.06
2018-07-20T22:02:28.325Z,32.25
2018-07-20T22:04:55.900Z,32.66
2018-07-20T22:07:23.488Z,32.17
2018-07-20T22:09:51.191Z,32.30
2018-07-20T22:12:18.925Z,32.43
2018-07-20T22:14:46.544Z,32.55
2018-07-20T22:17:14.167Z,32.23
2018-07-20T22:19:41.764Z,32.42
2018-07-20T22:22:09.343Z,32.21
2018-07-20T22:24:36.979Z,32.31
2018-07-20T22:27:04.568Z,32.57
2018-07-20T22:29:32.203Z,32.67
2018-07-20T22:31:59.812Z,32.31
2018-07-20T22:34:27.400Z,32.26
2018-07-20T22:36:56.462Z,32.60
2018-07-20T22:39:24.275Z,32.50
2018-07-20T22:41:52.081Z,32.78
2018-07-20T22:44:19.852Z,32.74
2018-07-20T22:46:47.464Z,32.96
2018-07-20T22:49:15.110Z,32.64
2018-07-20T22:51:42.883Z,33.28
2018-07-20T22:54:10.499Z,33.42
2018-07-20T22:56:38.169Z,33.21
2018-07-20T22:59:05.911Z,33.21
2018-07-20T23:01:33.635Z,32.64
2018-07-20T23:04:01.308Z,33.13
2018-07-20T23:06:28.915Z,33.34
2018-07-20T23:08:56.523Z,33.23
2018-07-20T23:11:24.168Z,33.13
2018-07-20T23:13:51.729Z,33.46
2018-07-20T23:16:19.341Z,33.62
2018-07-20T23:18:46.908Z,33.50
2018-07-20T23:21:14.512Z,33.63
2018-07-20T23:23:42.133Z,34.04
2018-07-20T23:26:09.692Z,33.88
2018-07-20T23:28:37.257Z,34.88
2018-07-20T23:31:04.981Z,35.00
2018-07-20T23:33:32.553Z,33.84
2018-07-20T23:36:00.180Z,33.76
2018-07-20T23:38:27.810Z,34.20
2018-07-20T23:40:55.453Z,33.97
2018-07-20T23:43:24.040Z,34.38
2018-07-20T23:45:51.684Z,34.26
2018-07-20T23:48:19.275Z,34.35
2018-07-20T23:50:46.827Z,35.04
2018-07-20T23:53:14.473Z,34.97
2018-07-20T23:55:42.060Z,34.80
2018-07-20T23:58:09.633Z,35.46
